Time;durP1;ratioP1;P1;durP2;ratioP2;P2;SDS_P1;SDS_P2;PMS_P1;PMS_P2;Temp;Humidity;BMP_temperature;BMP_pressure;BME280_temperature;BME280_humidity;BME280_pressure;Samples;Min_cycle;Max_cycle;Signal;HPM_P1;HPM_P2
2021/05/29 00:01:42;;;;;;;5.8;5.3;;;;;;;12.6;60.5;102230;;;;
2021/05/29 00:09:42;;;;;;;6.1;5.5;;;;;;;12.5;61.1;102230;;;;
2021/05/29 00:11:42;;;;;;;6.1;5.5;;;;;;;12.6;60.7;102230;;;;
2021/05/29 00:13:42;;;;;;;6.1;5.5;;;;;;;12.4;61.1;102230;;;;
2021/05/29 00:15:42;;;;;;;6.1;5.5;;;;;;;12.5;61.1;102240;;;;
2021/05/29 00:19:42;;;;;;;6.1;5.5;;;;;;;12.2;62.3;102230;;;;
2021/05/29 00:23:42;;;;;;;6.1;5.5;;;;;;;12.3;61.9;102230;;;;
2021/05/29 00:29:42;;;;;;;5.9;5.4;;;;;;;12.2;62.4;102230;;;;
2021/05/29 00:33:42;;;;;;;5.9;5.4;;;;;;;12.1;62.9;102230;;;;
2021/05/29 00:35:42;;;;;;;5.9;5.4;;;;;;;12.0;63.4;102230;;;;
2021/05/29 00:37:42;;;;;;;5.9;5.4;;;;;;;12.1;63.1;102230;;;;
2021/05/29 00:39:42;;;;;;;5.9;5.4;;;;;;;12.2;62.4;102230;;;;
2021/05/29 00:41:42;;;;;;;5.9;5.4;;;;;;;12.1;63.1;102230;;;;
2021/05/29 00:43:42;;;;;;;5.9;5.4;;;;;;;12.0;63.2;102230;;;;
2021/05/29 00:45:42;;;;;;;5.6;5.1;;;;;;;12.1;62.8;102220;;;;
2021/05/29 00:49:42;;;;;;;5.6;5.1;;;;;;;12.0;63.1;102230;;;;
2021/05/29 00:51:42;;;;;;;5.6;5.1;;;;;;;12.1;62.9;102230;;;;
2021/05/29 00:53:42;;;;;;;5.6;5.1;;;;;;;12.0;63.4;102230;;;;
2021/05/29 00:55:42;;;;;;;5.6;5.1;;;;;;;11.9;63.5;102230;;;;
2021/05/29 00:57:42;;;;;;;5.6;5.1;;;;;;;12.0;63.5;102230;;;;
2021/05/29 00:59:42;;;;;;;5.6;5.1;;;;;;;11.9;63.8;102240;;;;
2021/05/29 01:01:42;;;;;;;5.6;5.1;;;;;;;12.0;63.5;102240;;;;
2021/05/29 01:03:42;;;;;;;5.6;5.1;;;;;;;11.9;63.8;102240;;;;
2021/05/29 01:09:42;;;;;;;5.6;5.1;;;;;;;11.7;64.0;102240;;;;
2021/05/29 01:11:42;;;;;;;5.6;5.1;;;;;;;11.8;64.3;102240;;;;
2021/05/29 01:13:42;;;;;;;5.6;5.1;;;;;;;11.9;63.8;102240;;;;
2021/05/29 01:15:44;;;;;;;5.6;5.1;;;;;;;11.8;63.9;102240;;;;
2021/05/29 01:19:42;;;;;;;5.6;5.1;;;;;;;11.9;63.4;102230;;;;
2021/05/29 01:23:43;;;;;;;5.6;5.1;;;;;;;11.8;63.8;102230;;;;
2021/05/29 01:31:45;;;;;;;6.2;5.3;;;;;;;11.7;64.1;102230;;;;
2021/05/29 01:35:42;;;;;;;6.2;5.3;;;;;;;11.6;64.3;102230;;;;
2021/05/29 01:37:42;;;;;;;6.2;5.3;;;;;;;11.8;63.6;102230;;;;
2021/05/29 01:39:42;;;;;;;6.2;5.3;;;;;;;11.7;64.2;102230;;;;
2021/05/29 01:43:46;;;;;;;6.2;5.3;;;;;;;11.6;64.0;102240;;;;
2021/05/29 01:45:42;;;;;;;6.8;6.3;;;;;;;11.8;62.8;102240;;;;
2021/05/29 01:47:46;;;;;;;6.8;6.3;;;;;;;11.7;63.3;102240;;;;
2021/05/29 01:49:42;;;;;;;6.8;6.3;;;;;;;11.8;62.8;102240;;;;
2021/05/29 01:51:42;;;;;;;6.8;6.3;;;;;;;11.6;64.3;102240;;;;
2021/05/29 01:53:42;;;;;;;6.8;6.3;;;;;;;11.5;64.5;102250;;;;
2021/05/29 01:55:43;;;;;;;6.8;6.3;;;;;;;11.7;63.6;102240;;;;
2021/05/29 01:59:42;;;;;;;6.8;6.3;;;;;;;11.5;64.4;102250;;;;
2021/05/29 02:03:44;;;;;;;6.8;6.3;;;;;;;11.4;64.3;102250;;;;
2021/05/29 02:05:42;;;;;;;7.3;6.6;;;;;;;11.6;63.4;102250;;;;
2021/05/29 02:07:42;;;;;;;7.3;6.6;;;;;;;11.5;64.7;102250;;;;
2021/05/29 02:09:42;;;;;;;7.3;6.6;;;;;;;11.4;64.8;102250;;;;
2021/05/29 02:15:42;;;;;;;7.3;6.6;;;;;;;11.5;63.7;102240;;;;
2021/05/29 02:19:42;;;;;;;7.3;6.6;;;;;;;11.4;64.1;102250;;;;
2021/05/29 02:21:42;;;;;;;7.3;6.6;;;;;;;11.3;64.2;102250;;;;
2021/05/29 02:23:42;;;;;;;7.3;6.6;;;;;;;11.2;65.0;102250;;;;
2021/05/29 02:25:42;;;;;;;8.5;7.7;;;;;;;11.3;64.3;102250;;;;
2021/05/29 02:29:42;;;;;;;8.5;7.7;;;;;;;11.2;64.9;102260;;;;
2021/05/29 02:31:42;;;;;;;8.5;7.7;;;;;;;11.1;65.2;102260;;;;
2021/05/29 02:33:42;;;;;;;8.5;7.7;;;;;;;11.0;65.7;102260;;;;
2021/05/29 02:35:42;;;;;;;8.5;7.7;;;;;;;11.1;64.9;102250;;;;
2021/05/29 02:37:42;;;;;;;8.5;7.7;;;;;;;11.0;66.5;102260;;;;
2021/05/29 02:41:42;;;;;;;8.5;7.7;;;;;;;11.1;64.7;102250;;;;
2021/05/29 02:43:42;;;;;;;8.5;7.7;;;;;;;10.9;66.1;102260;;;;
2021/05/29 02:45:42;;;;;;;8.8;8.0;;;;;;;11.0;65.7;102260;;;;
2021/05/29 02:47:42;;;;;;;8.8;8.0;;;;;;;10.9;66.5;102260;;;;
2021/05/29 02:49:42;;;;;;;8.8;8.0;;;;;;;11.0;65.5;102260;;;;
2021/05/29 02:51:42;;;;;;;8.8;8.0;;;;;;;10.9;66.0;102270;;;;
2021/05/29 02:53:43;;;;;;;8.8;8.0;;;;;;;10.8;66.4;102270;;;;
2021/05/29 03:05:42;;;;;;;10.4;9.4;;;;;;;10.7;67.4;102270;;;;
2021/05/29 03:07:42;;;;;;;10.4;9.4;;;;;;;10.6;68.0;102270;;;;
2021/05/29 03:11:43;;;;;;;10.4;9.4;;;;;;;10.5;68.1;102270;;;;
2021/05/29 03:15:42;;;;;;;10.4;9.4;;;;;;;10.6;68.0;102270;;;;
2021/05/29 03:31:42;;;;;;;13.7;11.8;;;;;;;10.5;67.4;102270;;;;
2021/05/29 03:33:42;;;;;;;13.7;11.8;;;;;;;10.4;67.8;102270;;;;
2021/05/29 03:35:42;;;;;;;13.7;11.8;;;;;;;10.6;66.2;102270;;;;
2021/05/29 03:43:42;;;;;;;13.7;11.8;;;;;;;10.5;67.0;102270;;;;
2021/05/29 03:45:42;;;;;;;12.5;11.2;;;;;;;10.8;65.3;102280;;;;
2021/05/29 03:47:42;;;;;;;12.5;11.2;;;;;;;10.6;66.3;102280;;;;
2021/05/29 03:49:42;;;;;;;12.5;11.2;;;;;;;10.5;66.4;102280;;;;
2021/05/29 03:53:42;;;;;;;12.5;11.2;;;;;;;10.6;64.9;102290;;;;
2021/05/29 04:11:42;;;;;;;12.3;11.1;;;;;;;10.4;66.8;102290;;;;
2021/05/29 04:25:42;;;;;;;13.3;11.9;;;;;;;10.5;65.7;102300;;;;
2021/05/29 04:29:42;;;;;;;13.3;11.9;;;;;;;10.4;66.7;102300;;;;
2021/05/29 04:33:42;;;;;;;13.3;11.9;;;;;;;10.5;66.2;102300;;;;
2021/05/29 04:37:42;;;;;;;13.3;11.9;;;;;;;10.4;67.7;102300;;;;
2021/05/29 04:39:42;;;;;;;13.3;11.9;;;;;;;10.5;66.7;102310;;;;
2021/05/29 04:43:42;;;;;;;13.3;11.9;;;;;;;10.6;66.6;102310;;;;
2021/05/29 05:03:42;;;;;;;13.5;11.9;;;;;;;10.7;67.5;102320;;;;
2021/05/29 05:07:42;;;;;;;11.9;10.7;;;;;;;10.8;66.9;102320;;;;
2021/05/29 05:09:42;;;;;;;11.9;10.7;;;;;;;10.7;67.1;102330;;;;
2021/05/29 05:11:42;;;;;;;11.9;10.7;;;;;;;10.8;66.9;102330;;;;
2021/05/29 05:15:42;;;;;;;11.9;10.7;;;;;;;10.9;66.7;102330;;;;
2021/05/29 05:19:42;;;;;;;11.9;10.7;;;;;;;11.0;66.1;102330;;;;
2021/05/29 05:21:42;;;;;;;11.9;10.7;;;;;;;11.1;65.7;102330;;;;
2021/05/29 05:25:46;;;;;;;12.4;9.8;;;;;;;11.2;65.3;102330;;;;
2021/05/29 05:29:42;;;;;;;12.4;9.8;;;;;;;11.4;65.6;102340;;;;
2021/05/29 05:33:44;;;;;;;12.4;9.8;;;;;;;11.5;64.8;102340;;;;
2021/05/29 05:35:43;;;;;;;12.4;9.8;;;;;;;11.4;65.2;102340;;;;
2021/05/29 05:37:42;;;;;;;12.4;9.8;;;;;;;11.5;65.1;102340;;;;
2021/05/29 05:39:42;;;;;;;12.4;9.8;;;;;;;11.4;65.2;102340;;;;
2021/05/29 05:41:42;;;;;;;12.4;9.8;;;;;;;11.5;65.3;102340;;;;
2021/05/29 05:45:42;;;;;;;11.5;10.4;;;;;;;11.6;64.9;102350;;;;
2021/05/29 05:47:42;;;;;;;11.5;10.4;;;;;;;11.7;64.9;102360;;;;
2021/05/29 05:49:42;;;;;;;11.5;10.4;;;;;;;11.8;65.0;102360;;;;
2021/05/29 05:51:42;;;;;;;11.5;10.4;;;;;;;11.9;64.5;102360;;;;
2021/05/29 05:55:42;;;;;;;11.5;10.4;;;;;;;12.0;64.7;102360;;;;
2021/05/29 05:57:43;;;;;;;11.5;10.4;;;;;;;12.2;64.1;102360;;;;
2021/05/29 06:03:42;;;;;;;11.5;10.4;;;;;;;12.3;64.2;102370;;;;
2021/05/29 06:05:42;;;;;;;11.7;10.5;;;;;;;12.5;63.5;102370;;;;
2021/05/29 06:09:46;;;;;;;11.7;10.5;;;;;;;12.6;63.7;102370;;;;
2021/05/29 06:11:44;;;;;;;11.7;10.5;;;;;;;12.7;63.1;102370;;;;
2021/05/29 06:19:42;;;;;;;11.7;10.5;;;;;;;12.7;62.8;102370;;;;
2021/05/29 06:21:46;;;;;;;11.7;10.5;;;;;;;12.9;62.3;102370;;;;
2021/05/29 06:23:43;;;;;;;11.7;10.5;;;;;;;12.8;62.3;102370;;;;
2021/05/29 06:31:42;;;;;;;11.0;9.9;;;;;;;13.1;62.1;102380;;;;
2021/05/29 06:33:42;;;;;;;11.0;9.9;;;;;;;13.2;62.4;102380;;;;
2021/05/29 06:35:42;;;;;;;11.0;9.9;;;;;;;13.1;62.1;102380;;;;
2021/05/29 06:39:44;;;;;;;11.0;9.9;;;;;;;13.2;61.7;102390;;;;
2021/05/29 06:43:42;;;;;;;11.0;9.9;;;;;;;13.1;61.8;102400;;;;
2021/05/29 06:45:42;;;;;;;11.8;10.7;;;;;;;13.3;61.3;102400;;;;
2021/05/29 06:49:42;;;;;;;11.8;10.7;;;;;;;13.5;60.8;102400;;;;
2021/05/29 06:59:42;;;;;;;11.8;10.7;;;;;;;13.8;60.4;102400;;;;
2021/05/29 07:01:42;;;;;;;11.8;10.7;;;;;;;13.7;60.5;102400;;;;
2021/05/29 07:07:43;;;;;;;11.4;10.4;;;;;;;14.0;59.7;102400;;;;
2021/05/29 07:09:42;;;;;;;11.4;10.4;;;;;;;13.9;59.7;102400;;;;
2021/05/29 07:11:42;;;;;;;11.4;10.4;;;;;;;14.0;60.1;102400;;;;
2021/05/29 07:15:42;;;;;;;11.4;10.4;;;;;;;14.1;59.8;102400;;;;
2021/05/29 07:19:42;;;;;;;11.4;10.4;;;;;;;14.3;58.9;102400;;;;
2021/05/29 07:21:43;;;;;;;11.4;10.4;;;;;;;14.4;58.9;102400;;;;
2021/05/29 07:27:42;;;;;;;10.4;9.4;;;;;;;14.6;58.7;102400;;;;
2021/05/29 07:29:42;;;;;;;10.4;9.4;;;;;;;14.7;58.3;102400;;;;
2021/05/29 07:31:43;;;;;;;10.4;9.4;;;;;;;14.6;58.9;102400;;;;
2021/05/29 07:33:43;;;;;;;10.4;9.4;;;;;;;14.7;58.8;102400;;;;
2021/05/29 07:35:42;;;;;;;10.4;9.4;;;;;;;14.8;58.6;102410;;;;
2021/05/29 07:37:42;;;;;;;10.4;9.4;;;;;;;15.0;58.5;102410;;;;
2021/05/29 07:39:42;;;;;;;10.4;9.4;;;;;;;14.9;58.5;102420;;;;
2021/05/29 07:41:42;;;;;;;10.4;9.4;;;;;;;14.7;58.5;102410;;;;
2021/05/29 07:45:42;;;;;;;11.8;10.7;;;;;;;15.1;59.1;102420;;;;
2021/05/29 07:47:42;;;;;;;11.8;10.7;;;;;;;15.2;58.3;102420;;;;
2021/05/29 07:49:44;;;;;;;11.8;10.7;;;;;;;14.9;58.4;102420;;;;
2021/05/29 08:25:05;;;;;;;11.6;9.8;;;;;;;15.0;60.6;102430;;;;
2021/05/29 08:27:03;;;;;;;11.6;9.8;;;;;;;15.4;58.7;102430;;;;
2021/05/29 08:29:03;;;;;;;11.6;9.8;;;;;;;15.6;57.6;102430;;;;
2021/05/29 08:31:04;;;;;;;11.6;9.8;;;;;;;15.7;56.5;102430;;;;
2021/05/29 08:33:03;;;;;;;11.6;9.8;;;;;;;15.9;56.3;102430;;;;
2021/05/29 08:35:04;;;;;;;11.6;9.8;;;;;;;16.0;56.0;102430;;;;
2021/05/29 08:37:05;;;;;;;11.6;9.8;;;;;;;16.2;56.2;102430;;;;
2021/05/29 08:41:03;;;;;;;11.6;9.8;;;;;;;16.3;55.4;102430;;;;
2021/05/29 08:43:03;;;;;;;11.6;9.8;;;;;;;16.4;55.0;102430;;;;
2021/05/29 08:45:03;;;;;;;7.1;6.2;;;;;;;16.5;55.1;102430;;;;
2021/05/29 08:47:05;;;;;;;7.1;6.2;;;;;;;16.7;54.6;102430;;;;
2021/05/29 08:49:03;;;;;;;7.1;6.2;;;;;;;16.6;53.5;102430;;;;
2021/05/29 08:53:03;;;;;;;7.1;6.2;;;;;;;16.8;54.4;102440;;;;
2021/05/29 08:55:06;;;;;;;7.1;6.2;;;;;;;17.0;54.0;102440;;;;
2021/05/29 08:55:33;;;;;;;7.1;6.2;;;;;;;17.0;54.0;102440;;;;
2021/05/29 08:57:03;;;;;;;7.1;6.2;;;;;;;17.0;54.0;102440;;;;
2021/05/29 08:57:15;;;;;;;7.1;6.2;;;;;;;16.9;52.8;102440;;;;
2021/05/29 08:58:52;;;;;;;7.1;6.2;;;;;;;16.9;52.8;102440;;;;
2021/05/29 08:59:03;;;;;;;7.1;6.2;;;;;;;16.8;52.8;102440;;;;
2021/05/29 09:01:04;;;;;;;7.1;6.2;;;;;;;17.0;53.3;102440;;;;
2021/05/29 09:03:03;;;;;;;7.1;6.2;;;;;;;16.9;53.3;102440;;;;
2021/05/29 09:05:05;;;;;;;6.5;5.6;;;;;;;17.0;52.6;102440;;;;
2021/05/29 09:10:51;;;;;;;6.5;5.6;;;;;;;17.2;51.2;102440;;;;
2021/05/29 09:15:03;;;;;;;6.5;5.6;;;;;;;17.3;51.7;102440;;;;
2021/05/29 09:19:03;;;;;;;6.5;5.6;;;;;;;17.4;52.6;102440;;;;
2021/05/29 09:21:03;;;;;;;6.5;5.6;;;;;;;17.5;51.6;102440;;;;
2021/05/29 09:25:03;;;;;;;6.9;6.3;;;;;;;17.6;51.4;102440;;;;
2021/05/29 09:26:36;;;;;;;6.9;6.3;;;;;;;17.6;51.8;102440;;;;
2021/05/29 09:29:03;;;;;;;6.9;6.3;;;;;;;17.7;50.8;102440;;;;
2021/05/29 09:31:04;;;;;;;6.9;6.3;;;;;;;17.6;51.5;102450;;;;
2021/05/29 09:33:03;;;;;;;6.9;6.3;;;;;;;17.7;51.4;102450;;;;
2021/05/29 09:35:04;;;;;;;6.9;6.3;;;;;;;17.6;51.5;102450;;;;
2021/05/29 09:45:05;;;;;;;7.0;6.3;;;;;;;17.8;50.8;102460;;;;
2021/05/29 09:49:03;;;;;;;7.0;6.3;;;;;;;17.5;49.7;102460;;;;
2021/05/29 09:51:03;;;;;;;7.0;6.3;;;;;;;17.7;49.6;102460;;;;
2021/05/29 09:53:03;;;;;;;7.0;6.3;;;;;;;17.8;49.0;102460;;;;
2021/05/29 09:55:03;;;;;;;7.0;6.3;;;;;;;17.9;50.5;102460;;;;
2021/05/29 09:57:03;;;;;;;7.0;6.3;;;;;;;18.1;50.8;102460;;;;
2021/05/29 09:59:03;;;;;;;7.0;6.3;;;;;;;17.8;48.8;102460;;;;
2021/05/29 10:01:03;;;;;;;7.0;6.3;;;;;;;18.0;49.5;102460;;;;
2021/05/29 10:07:03;;;;;;;6.2;5.6;;;;;;;18.2;49.2;102460;;;;
2021/05/29 10:09:03;;;;;;;6.2;5.6;;;;;;;18.3;47.2;102450;;;;
2021/05/29 10:13:03;;;;;;;6.2;5.6;;;;;;;18.5;47.8;102460;;;;
2021/05/29 10:15:03;;;;;;;6.2;5.6;;;;;;;18.3;47.9;102460;;;;
2021/05/29 10:17:03;;;;;;;6.2;5.6;;;;;;;18.4;48.9;102460;;;;
2021/05/29 10:21:03;;;;;;;6.2;5.6;;;;;;;18.6;48.8;102460;;;;
2021/05/29 10:23:03;;;;;;;6.2;5.6;;;;;;;18.5;48.8;102460;;;;
2021/05/29 10:27:03;;;;;;;7.4;6.8;;;;;;;18.9;48.4;102460;;;;
2021/05/29 10:35:05;;;;;;;7.4;6.8;;;;;;;18.7;48.4;102470;;;;
2021/05/29 10:37:03;;;;;;;7.4;6.8;;;;;;;18.8;49.2;102460;;;;
2021/05/29 10:39:03;;;;;;;7.4;6.8;;;;;;;18.7;46.5;102460;;;;
2021/05/29 10:41:03;;;;;;;7.4;6.8;;;;;;;18.9;47.6;102460;;;;
2021/05/29 10:43:07;;;;;;;7.4;6.8;;;;;;;18.8;49.7;102460;;;;
2021/05/29 10:47:04;;;;;;;8.4;7.4;;;;;;;18.9;47.3;102460;;;;
2021/05/29 10:49:32;;;;;;;8.4;7.4;;;;;;;19.0;46.4;102450;;;;
2021/05/29 10:51:06;;;;;;;8.4;7.4;;;;;;;19.1;47.0;102450;;;;
2021/05/29 10:53:05;;;;;;;8.4;7.4;;;;;;;19.2;46.8;102450;;;;
2021/05/29 10:55:03;;;;;;;8.4;7.4;;;;;;;19.4;48.0;102450;;;;
2021/05/29 10:59:06;;;;;;;8.4;7.4;;;;;;;19.1;47.1;102450;;;;
2021/05/29 11:01:03;;;;;;;8.4;7.4;;;;;;;19.0;48.3;102450;;;;
2021/05/29 11:03:03;;;;;;;8.4;7.4;;;;;;;19.2;48.3;102450;;;;
2021/05/29 11:05:03;;;;;;;7.0;6.3;;;;;;;19.3;48.4;102450;;;;
2021/05/29 11:07:03;;;;;;;7.0;6.3;;;;;;;19.6;47.7;102450;;;;
2021/05/29 11:09:03;;;;;;;7.0;6.3;;;;;;;19.4;46.1;102450;;;;
2021/05/29 11:11:03;;;;;;;7.0;6.3;;;;;;;19.3;46.9;102440;;;;
2021/05/29 11:13:03;;;;;;;7.0;6.3;;;;;;;19.4;45.8;102440;;;;
2021/05/29 11:15:03;;;;;;;7.0;6.3;;;;;;;19.8;47.6;102450;;;;
2021/05/29 11:17:03;;;;;;;7.0;6.3;;;;;;;19.6;45.8;102440;;;;
2021/05/29 11:19:03;;;;;;;7.0;6.3;;;;;;;19.9;44.8;102440;;;;
2021/05/29 11:21:03;;;;;;;7.0;6.3;;;;;;;20.0;44.8;102450;;;;
2021/05/29 11:23:03;;;;;;;7.0;6.3;;;;;;;19.9;45.7;102450;;;;
2021/05/29 11:27:05;;;;;;;7.3;6.6;;;;;;;20.0;45.8;102440;;;;
2021/05/29 11:29:03;;;;;;;7.3;6.6;;;;;;;19.9;45.6;102440;;;;
2021/05/29 11:37:03;;;;;;;7.3;6.6;;;;;;;20.1;46.0;102440;;;;
2021/05/29 11:39:03;;;;;;;7.3;6.6;;;;;;;20.3;45.7;102440;;;;
2021/05/29 11:41:11;;;;;;;7.3;6.6;;;;;;;20.4;46.0;102440;;;;
2021/05/29 11:43:03;;;;;;;7.3;6.6;;;;;;;20.5;45.0;102440;;;;
2021/05/29 11:45:08;;;;;;;5.3;4.8;;;;;;;20.6;45.8;102430;;;;
2021/05/29 11:47:03;;;;;;;5.3;4.8;;;;;;;20.8;46.5;102430;;;;
2021/05/29 11:49:04;;;;;;;5.3;4.8;;;;;;;20.9;43.9;102430;;;;
2021/05/29 11:51:12;;;;;;;5.3;4.8;;;;;;;20.3;44.0;102440;;;;
2021/05/29 11:53:03;;;;;;;5.3;4.8;;;;;;;20.4;43.9;102430;;;;
2021/05/29 11:55:06;;;;;;;5.3;4.8;;;;;;;20.6;46.5;102430;;;;
2021/05/29 11:57:03;;;;;;;5.3;4.8;;;;;;;20.5;45.1;102440;;;;
2021/05/29 11:59:05;;;;;;;5.3;4.8;;;;;;;20.6;45.0;102430;;;;
2021/05/29 12:01:03;;;;;;;5.3;4.8;;;;;;;20.8;45.2;102430;;;;
2021/05/29 12:03:03;;;;;;;5.3;4.8;;;;;;;20.9;45.3;102430;;;;
2021/05/29 12:07:06;;;;;;;6.4;5.8;;;;;;;20.6;43.7;102430;;;;
2021/05/29 12:09:04;;;;;;;6.4;5.8;;;;;;;20.5;44.3;102430;;;;
2021/05/29 12:11:03;;;;;;;6.4;5.8;;;;;;;20.7;44.6;102420;;;;
2021/05/29 12:13:03;;;;;;;6.4;5.8;;;;;;;20.8;45.4;102420;;;;
2021/05/29 12:15:03;;;;;;;6.4;5.8;;;;;;;20.9;45.9;102430;;;;
2021/05/29 12:17:03;;;;;;;6.4;5.8;;;;;;;20.6;45.6;102430;;;;
2021/05/29 12:19:03;;;;;;;6.4;5.8;;;;;;;20.8;47.6;102430;;;;
2021/05/29 12:21:04;;;;;;;6.4;5.8;;;;;;;20.9;45.5;102430;;;;
2021/05/29 12:25:04;;;;;;;6.1;5.5;;;;;;;21.0;45.4;102420;;;;
2021/05/29 12:27:03;;;;;;;6.1;5.5;;;;;;;20.9;43.4;102430;;;;
2021/05/29 12:29:03;;;;;;;6.1;5.5;;;;;;;21.2;44.4;102420;;;;
2021/05/29 12:31:03;;;;;;;6.1;5.5;;;;;;;21.1;42.4;102420;;;;
2021/05/29 12:33:03;;;;;;;6.1;5.5;;;;;;;21.2;43.0;102420;;;;
2021/05/29 12:35:03;;;;;;;6.1;5.5;;;;;;;21.3;44.6;102420;;;;
2021/05/29 12:37:03;;;;;;;6.1;5.5;;;;;;;21.0;43.9;102410;;;;
2021/05/29 12:39:03;;;;;;;6.1;5.5;;;;;;;21.1;45.8;102420;;;;
2021/05/29 12:41:08;;;;;;;6.1;5.5;;;;;;;20.6;43.9;102420;;;;
2021/05/29 12:43:04;;;;;;;6.1;5.5;;;;;;;20.4;43.7;102420;;;;
2021/05/29 12:45:03;;;;;;;7.0;6.4;;;;;;;20.2;44.1;102430;;;;
2021/05/29 12:47:03;;;;;;;7.0;6.4;;;;;;;20.4;44.0;102420;;;;
2021/05/29 12:49:03;;;;;;;7.0;6.4;;;;;;;20.6;44.0;102420;;;;
2021/05/29 12:53:03;;;;;;;7.0;6.4;;;;;;;20.7;44.7;102430;;;;
2021/05/29 12:55:04;;;;;;;7.0;6.4;;;;;;;20.5;43.2;102420;;;;
2021/05/29 12:57:03;;;;;;;7.0;6.4;;;;;;;20.4;46.2;102430;;;;
2021/05/29 12:58:13;;;;;;;7.0;6.4;;;;;;;20.4;46.2;102430;;;;
2021/05/29 12:59:03;;;;;;;7.0;6.4;;;;;;;20.5;44.7;102430;;;;
2021/05/29 13:07:25;;;;;;;7.0;6.4;;;;;;;20.8;44.5;102430;;;;
2021/05/29 13:09:07;;;;;;;5.9;5.4;;;;;;;21.4;45.1;102420;;;;
2021/05/29 13:11:05;;;;;;;5.9;5.4;;;;;;;21.7;45.9;102420;;;;
2021/05/29 13:13:04;;;;;;;5.9;5.4;;;;;;;21.2;43.8;102420;;;;
2021/05/29 13:15:03;;;;;;;5.9;5.4;;;;;;;21.1;45.0;102430;;;;
2021/05/29 13:17:03;;;;;;;5.9;5.4;;;;;;;21.0;46.1;102430;;;;
2021/05/29 13:19:09;;;;;;;unavailable;unavailable;;;;;;;unavailable;unavailable;0;;;;
2021/05/29 13:20:33;;;;;;;5.9;5.4;;;;;;;21.3;44.8;102420;;;;
2021/05/29 13:25:04;;;;;;;6.2;5.6;;;;;;;21.6;45.0;102420;;;;
2021/05/29 13:27:03;;;;;;;6.2;5.6;;;;;;;21.3;45.0;102420;;;;
2021/05/29 13:29:03;;;;;;;6.2;5.6;;;;;;;21.5;44.2;102420;;;;
2021/05/29 13:31:03;;;;;;;6.2;5.6;;;;;;;21.8;43.2;102420;;;;
2021/05/29 13:33:03;;;;;;;6.2;5.6;;;;;;;22.1;42.3;102420;;;;
2021/05/29 13:35:03;;;;;;;6.2;5.6;;;;;;;21.9;43.1;102420;;;;
2021/05/29 13:37:08;;;;;;;6.2;5.6;;;;;;;21.8;42.7;102410;;;;
2021/05/29 13:39:03;;;;;;;6.2;5.6;;;;;;;21.4;41.6;102420;;;;
2021/05/29 13:41:03;;;;;;;6.2;5.6;;;;;;;21.5;42.6;102410;;;;
2021/05/29 13:43:03;;;;;;;6.2;5.6;;;;;;;21.8;43.3;102410;;;;
2021/05/29 13:45:04;;;;;;;5.4;4.9;;;;;;;22.2;42.7;102410;;;;
2021/05/29 13:47:03;;;;;;;5.4;4.9;;;;;;;22.4;40.8;102420;;;;
2021/05/29 13:49:04;;;;;;;5.4;4.9;;;;;;;22.6;41.9;102410;;;;
2021/05/29 13:51:03;;;;;;;5.4;4.9;;;;;;;22.9;42.2;102420;;;;
2021/05/29 13:55:03;;;;;;;5.4;4.9;;;;;;;22.6;40.7;102410;;;;
2021/05/29 13:57:03;;;;;;;5.4;4.9;;;;;;;22.5;39.6;102420;;;;
2021/05/29 13:59:04;;;;;;;5.4;4.9;;;;;;;22.2;40.5;102420;;;;
2021/05/29 14:01:03;;;;;;;5.4;4.9;;;;;;;22.3;41.3;102420;;;;
2021/05/29 14:03:03;;;;;;;5.4;4.9;;;;;;;22.4;40.9;102420;;;;
2021/05/29 14:05:04;;;;;;;5.7;5.2;;;;;;;22.5;40.9;102420;;;;
2021/05/29 14:07:03;;;;;;;5.7;5.2;;;;;;;22.2;41.8;102420;;;;
2021/05/29 14:09:03;;;;;;;5.7;5.2;;;;;;;21.9;43.2;102420;;;;
2021/05/29 14:11:04;;;;;;;5.7;5.2;;;;;;;21.8;41.3;102430;;;;
2021/05/29 14:13:03;;;;;;;5.7;5.2;;;;;;;21.7;42.4;102430;;;;
2021/05/29 14:17:03;;;;;;;5.7;5.2;;;;;;;21.6;41.8;102420;;;;
2021/05/29 14:19:03;;;;;;;5.7;5.2;;;;;;;21.7;41.2;102430;;;;
2021/05/29 14:21:03;;;;;;;5.7;5.2;;;;;;;21.8;42.5;102420;;;;
2021/05/29 14:23:04;;;;;;;5.7;5.2;;;;;;;22.2;42.5;102420;;;;
2021/05/29 14:25:03;;;;;;;5.6;5.1;;;;;;;22.3;41.0;102420;;;;
2021/05/29 14:27:03;;;;;;;5.6;5.1;;;;;;;22.4;42.9;102430;;;;
2021/05/29 14:29:03;;;;;;;5.6;5.1;;;;;;;22.3;40.3;102430;;;;
2021/05/29 14:31:05;;;;;;;5.6;5.1;;;;;;;22.6;42.2;102430;;;;
2021/05/29 14:35:03;;;;;;;5.6;5.1;;;;;;;22.8;40.4;102430;;;;
2021/05/29 14:37:03;;;;;;;5.6;5.1;;;;;;;23.2;39.0;102420;;;;
2021/05/29 14:39:04;;;;;;;5.6;5.1;;;;;;;23.8;38.3;102420;;;;
2021/05/29 14:41:03;;;;;;;5.6;5.1;;;;;;;23.9;37.2;102420;;;;
2021/05/29 14:43:03;;;;;;;5.6;5.1;;;;;;;24.0;38.1;102430;;;;
2021/05/29 14:45:03;;;;;;;5.8;5.3;;;;;;;24.1;37.7;102430;;;;
2021/05/29 14:47:04;;;;;;;5.8;5.3;;;;;;;23.7;37.8;102430;;;;
2021/05/29 14:49:03;;;;;;;5.8;5.3;;;;;;;23.5;38.0;102430;;;;
2021/05/29 14:53:03;;;;;;;5.8;5.3;;;;;;;23.3;37.0;102430;;;;
2021/05/29 14:55:03;;;;;;;5.8;5.3;;;;;;;23.2;38.6;102420;;;;
2021/05/29 14:57:04;;;;;;;5.8;5.3;;;;;;;23.8;37.9;102430;;;;
2021/05/29 14:59:03;;;;;;;5.8;5.3;;;;;;;23.3;37.0;102430;;;;
2021/05/29 15:01:03;;;;;;;5.8;5.3;;;;;;;23.1;39.4;102430;;;;
2021/05/29 15:03:04;;;;;;;5.8;5.3;;;;;;;23.8;38.5;102430;;;;
2021/05/29 15:07:03;;;;;;;5.5;5.0;;;;;;;23.9;37.8;102430;;;;
2021/05/29 15:11:03;;;;;;;5.5;5.0;;;;;;;25.2;37.7;102430;;;;
2021/05/29 15:13:04;;;;;;;5.5;5.0;;;;;;;25.3;35.8;102410;;;;
2021/05/29 15:15:03;;;;;;;5.5;5.0;;;;;;;24.3;36.1;102430;;;;
2021/05/29 15:17:03;;;;;;;5.5;5.0;;;;;;;24.1;36.1;102430;;;;
2021/05/29 15:19:03;;;;;;;5.5;5.0;;;;;;;23.8;37.0;102430;;;;
2021/05/29 15:25:05;;;;;;;4.3;3.6;;;;;;;23.4;37.8;102430;;;;
2021/05/29 15:27:04;;;;;;;4.3;3.6;;;;;;;23.7;38.6;102430;;;;
2021/05/29 15:29:03;;;;;;;4.3;3.6;;;;;;;23.9;37.6;102430;;;;
2021/05/29 15:33:03;;;;;;;4.3;3.6;;;;;;;24.5;37.6;102420;;;;
2021/05/29 15:35:04;;;;;;;4.3;3.6;;;;;;;24.8;37.0;102430;;;;
2021/05/29 15:37:03;;;;;;;4.3;3.6;;;;;;;24.6;36.0;102430;;;;
2021/05/29 15:39:06;;;;;;;4.3;3.6;;;;;;;25.0;36.1;102430;;;;
2021/05/29 15:41:04;;;;;;;4.3;3.6;;;;;;;25.1;36.8;102430;;;;
2021/05/29 15:43:05;;;;;;;4.3;3.6;;;;;;;25.2;35.8;102420;;;;
2021/05/29 15:45:03;;;;;;;5.8;5.3;;;;;;;25.5;35.2;102430;;;;
2021/05/29 15:47:03;;;;;;;5.8;5.3;;;;;;;25.6;35.2;102420;;;;
2021/05/29 15:49:03;;;;;;;5.8;5.3;;;;;;;25.7;34.6;102420;;;;
2021/05/29 15:51:05;;;;;;;5.8;5.3;;;;;;;25.0;35.0;102410;;;;
2021/05/29 15:53:05;;;;;;;5.8;5.3;;;;;;;24.7;35.5;102420;;;;
2021/05/29 15:55:03;;;;;;;5.8;5.3;;;;;;;24.5;36.3;102420;;;;
2021/05/29 15:57:03;;;;;;;5.8;5.3;;;;;;;24.9;37.6;102420;;;;
2021/05/29 15:59:09;;;;;;;5.8;5.3;;;;;;;25.1;37.4;102410;;;;
2021/05/29 16:01:04;;;;;;;5.8;5.3;;;;;;;24.5;35.2;102410;;;;
2021/05/29 16:03:03;;;;;;;5.8;5.3;;;;;;;24.7;37.1;102420;;;;
2021/05/29 16:05:03;;;;;;;6.7;6.0;;;;;;;24.9;36.8;102410;;;;
2021/05/29 16:07:03;;;;;;;6.7;6.0;;;;;;;25.0;35.2;102410;;;;
2021/05/29 16:09:03;;;;;;;6.7;6.0;;;;;;;25.1;35.1;102420;;;;
2021/05/29 16:13:04;;;;;;;6.7;6.0;;;;;;;24.7;35.4;102410;;;;
2021/05/29 16:17:04;;;;;;;6.7;6.0;;;;;;;24.5;36.0;102420;;;;
2021/05/29 16:19:03;;;;;;;6.7;6.0;;;;;;;24.0;36.3;102430;;;;
2021/05/29 16:21:03;;;;;;;6.7;6.0;;;;;;;24.1;36.3;102430;;;;
2021/05/29 16:25:03;;;;;;;7.8;5.6;;;;;;;24.3;36.1;102430;;;;
2021/05/29 16:27:03;;;;;;;7.8;5.6;;;;;;;24.5;37.1;102430;;;;
2021/05/29 16:29:03;;;;;;;7.8;5.6;;;;;;;23.8;35.7;102430;;;;
2021/05/29 16:31:03;;;;;;;7.8;5.6;;;;;;;23.6;36.7;102430;;;;
2021/05/29 16:33:06;;;;;;;7.8;5.6;;;;;;;22.8;37.1;102430;;;;
2021/05/29 16:35:08;;;;;;;7.8;5.6;;;;;;;22.4;38.2;102430;;;;
2021/05/29 16:37:03;;;;;;;7.8;5.6;;;;;;;22.3;38.2;102430;;;;
2021/05/29 16:39:03;;;;;;;7.8;5.6;;;;;;;22.0;38.3;102430;;;;
2021/05/29 16:41:05;;;;;;;7.8;5.6;;;;;;;22.2;39.2;102420;;;;
2021/05/29 16:43:04;;;;;;;7.8;5.6;;;;;;;22.6;38.3;102420;;;;
2021/05/29 16:45:03;;;;;;;4.4;4.0;;;;;;;23.1;38.8;102420;;;;
2021/05/29 16:47:05;;;;;;;4.4;4.0;;;;;;;23.2;36.6;102420;;;;
2021/05/29 16:49:05;;;;;;;4.4;4.0;;;;;;;23.8;37.0;102420;;;;
2021/05/29 16:51:03;;;;;;;4.4;4.0;;;;;;;24.1;36.6;102420;;;;
2021/05/29 16:53:04;;;;;;;4.4;4.0;;;;;;;23.8;36.0;102420;;;;
2021/05/29 16:55:03;;;;;;;4.4;4.0;;;;;;;23.3;36.8;102420;;;;
2021/05/29 16:57:03;;;;;;;4.4;4.0;;;;;;;23.7;35.8;102420;;;;
2021/05/29 16:59:03;;;;;;;4.4;4.0;;;;;;;24.0;35.9;102420;;;;
2021/05/29 17:01:04;;;;;;;4.4;4.0;;;;;;;24.1;34.7;102420;;;;
2021/05/29 17:05:03;;;;;;;4.1;3.7;;;;;;;24.0;34.0;102420;;;;
2021/05/29 17:07:03;;;;;;;4.1;3.7;;;;;;;24.1;34.4;102420;;;;
2021/05/29 17:09:03;;;;;;;4.1;3.7;;;;;;;24.5;34.4;102420;;;;
2021/05/29 17:11:06;;;;;;;4.1;3.7;;;;;;;24.1;34.9;102420;;;;
2021/05/29 17:13:03;;;;;;;4.1;3.7;;;;;;;24.2;33.6;102420;;;;
2021/05/29 17:17:03;;;;;;;4.1;3.7;;;;;;;24.3;33.6;102420;;;;
2021/05/29 17:19:03;;;;;;;4.1;3.7;;;;;;;23.9;33.6;102420;;;;
2021/05/29 17:21:03;;;;;;;4.1;3.7;;;;;;;23.8;33.8;102420;;;;
2021/05/29 17:23:03;;;;;;;4.1;3.7;;;;;;;24.4;34.3;102420;;;;
2021/05/29 17:35:04;;;;;;;3.8;3.5;;;;;;;23.9;32.9;102430;;;;
2021/05/29 17:39:04;;;;;;;3.8;3.5;;;;;;;23.8;32.4;102430;;;;
2021/05/29 17:41:04;;;;;;;3.8;3.5;;;;;;;23.4;34.4;102430;;;;
2021/05/29 17:43:04;;;;;;;3.8;3.5;;;;;;;23.0;33.9;102430;;;;
2021/05/29 17:45:04;;;;;;;4.9;3.3;;;;;;;23.1;34.2;102430;;;;
2021/05/29 17:47:08;;;;;;;4.9;3.3;;;;;;;22.8;34.2;102430;;;;
2021/05/29 17:49:04;;;;;;;4.9;3.3;;;;;;;22.6;34.6;102430;;;;
2021/05/29 17:51:04;;;;;;;4.9;3.3;;;;;;;21.9;35.1;102440;;;;
2021/05/29 17:53:04;;;;;;;4.9;3.3;;;;;;;21.8;35.7;102440;;;;
2021/05/29 17:55:03;;;;;;;4.9;3.3;;;;;;;21.5;37.4;102440;;;;
2021/05/29 17:57:04;;;;;;;4.9;3.3;;;;;;;21.2;36.5;102440;;;;
2021/05/29 17:59:19;;;;;;;4.9;3.3;;;;;;;20.9;37.3;102440;;;;
2021/05/29 18:01:04;;;;;;;4.9;3.3;;;;;;;20.5;37.3;102450;;;;
2021/05/29 18:03:03;;;;;;;4.9;3.3;;;;;;;20.4;37.9;102450;;;;
2021/05/29 18:05:03;;;;;;;8.0;5.2;;;;;;;20.5;37.8;102450;;;;
2021/05/29 18:07:03;;;;;;;8.0;5.2;;;;;;;20.3;38.2;102450;;;;
2021/05/29 18:11:03;;;;;;;8.0;5.2;;;;;;;20.4;39.5;102450;;;;
2021/05/29 18:13:04;;;;;;;8.0;5.2;;;;;;;20.7;39.6;102440;;;;
2021/05/29 18:15:03;;;;;;;8.0;5.2;;;;;;;20.4;39.0;102450;;;;
2021/05/29 18:17:03;;;;;;;8.0;5.2;;;;;;;20.2;39.8;102450;;;;
2021/05/29 18:19:03;;;;;;;8.0;5.2;;;;;;;20.0;39.5;102440;;;;
2021/05/29 18:21:03;;;;;;;8.0;5.2;;;;;;;19.5;39.6;102440;;;;
2021/05/29 18:23:06;;;;;;;8.0;5.2;;;;;;;19.6;40.2;102440;;;;
2021/05/29 18:27:03;;;;;;;5.6;5.0;;;;;;;19.5;40.9;102440;;;;
2021/05/29 18:29:03;;;;;;;5.6;5.0;;;;;;;19.4;41.3;102440;;;;
2021/05/29 18:31:05;;;;;;;5.6;5.0;;;;;;;19.3;42.7;102440;;;;